createdAt,value
2023-12-27T00:00:50.733Z,61.43
2023-12-27T00:03:17.501Z,61.39
2023-12-27T00:05:44.097Z,61.72
2023-12-27T00:08:10.861Z,61.49
2023-12-27T00:10:37.376Z,61.79
2023-12-27T00:13:04.078Z,62.08
2023-12-27T00:15:30.712Z,62.53
2023-12-27T00:17:57.617Z,62.34
2023-12-27T00:20:24.361Z,62.37
2023-12-27T00:22:50.823Z,62.49
2023-12-27T00:25:17.298Z,62.68
2023-12-27T00:27:43.835Z,63.00
2023-12-27T00:30:10.915Z,62.72
2023-12-27T00:32:37.532Z,62.79
2023-12-27T00:35:04.261Z,62.38
2023-12-27T00:37:31.979Z,62.66
2023-12-27T00:39:58.496Z,62.51
2023-12-27T00:42:25.092Z,62.10
2023-12-27T00:44:52.663Z,62.49
2023-12-27T00:47:19.777Z,62.03
2023-12-27T00:49:46.378Z,61.80
2023-12-27T00:52:13.458Z,61.49
2023-12-27T00:54:40.092Z,61.60
2023-12-27T00:57:07.064Z,61.64
2023-12-27T00:59:33.765Z,61.17
2023-12-27T01:02:00.235Z,60.96
2023-12-27T01:04:26.891Z,60.98
2023-12-27T01:06:53.477Z,60.95
2023-12-27T01:09:20.074Z,60.68
2023-12-27T01:11:46.846Z,60.65
2023-12-27T01:14:13.696Z,60.47
2023-12-27T01:16:40.241Z,60.19
2023-12-27T01:19:06.843Z,60.57
2023-12-27T01:21:33.639Z,59.97
2023-12-27T01:24:00.372Z,59.70
2023-12-27T01:26:27.026Z,59.84
2023-12-27T01:28:53.532Z,59.22
2023-12-27T01:31:20.112Z,59.35
2023-12-27T01:33:46.889Z,59.19
2023-12-27T01:36:13.772Z,59.61
2023-12-27T01:38:40.308Z,59.31
2023-12-27T01:41:06.805Z,59.24
2023-12-27T01:43:33.400Z,59.16
2023-12-27T01:45:59.904Z,59.44
2023-12-27T01:48:26.713Z,59.70
2023-12-27T01:50:55.051Z,60.22
2023-12-27T01:53:23.525Z,60.16
2023-12-27T01:55:51.923Z,59.97
2023-12-27T01:58:18.773Z,59.94
2023-12-27T02:00:46.877Z,60.15
2023-12-27T02:03:15.956Z,60.35
2023-12-27T02:05:42.792Z,60.45
2023-12-27T02:08:11.234Z,60.45
2023-12-27T02:10:38.536Z,60.33
2023-12-27T02:13:06.083Z,60.12
2023-12-27T02:15:39.288Z,60.15
2023-12-27T02:18:07.775Z,60.57
2023-12-27T02:20:35.050Z,60.48
2023-12-27T02:23:06.354Z,60.50
2023-12-27T02:25:36.589Z,60.37
2023-12-27T02:28:03.265Z,60.14
2023-12-27T02:30:32.441Z,59.68
2023-12-27T02:32:59.180Z,59.52
2023-12-27T02:35:25.841Z,59.48
2023-12-27T02:37:52.444Z,59.07
2023-12-27T02:40:19.020Z,58.72
2023-12-27T02:42:45.671Z,58.89
2023-12-27T02:45:12.308Z,58.46
2023-12-27T02:47:38.915Z,58.40
2023-12-27T02:50:06.115Z,58.65
2023-12-27T02:52:32.690Z,58.14
2023-12-27T02:54:59.257Z,58.30
2023-12-27T02:57:25.871Z,58.05
2023-12-27T02:59:52.464Z,57.92
2023-12-27T03:02:19.025Z,58.23
2023-12-27T03:04:45.582Z,58.23
2023-12-27T03:07:12.798Z,58.38
2023-12-27T03:09:39.331Z,58.26
2023-12-27T03:12:06.501Z,58.21
2023-12-27T03:14:33.324Z,58.39
2023-12-27T03:17:00.991Z,58.21
2023-12-27T03:19:27.615Z,58.31
2023-12-27T03:21:54.240Z,58.40
2023-12-27T03:24:20.819Z,58.12
2023-12-27T03:26:47.338Z,57.91
2023-12-27T03:29:13.891Z,57.24
2023-12-27T03:31:40.429Z,57.24
2023-12-27T03:34:07.087Z,57.28
2023-12-27T03:36:33.796Z,56.93
2023-12-27T03:39:00.359Z,56.81
2023-12-27T03:41:27.036Z,57.05
2023-12-27T03:43:59.468Z,57.17
2023-12-27T03:46:26.551Z,56.83
2023-12-27T03:48:53.198Z,56.99
2023-12-27T03:51:25.970Z,57.24
2023-12-27T03:53:52.592Z,56.89
2023-12-27T03:56:19.137Z,56.83
2023-12-27T03:58:45.656Z,56.78
2023-12-27T04:01:12.482Z,56.75
2023-12-27T04:03:40.939Z,56.52
2023-12-27T04:06:07.872Z,56.33
2023-12-27T04:08:37.038Z,56.06
2023-12-27T04:11:03.889Z,56.26
2023-12-27T04:13:30.478Z,56.03
2023-12-27T04:15:56.972Z,55.65
2023-12-27T04:18:23.590Z,55.86
2023-12-27T04:20:50.181Z,55.71
2023-12-27T04:23:16.689Z,55.88
2023-12-27T04:25:43.356Z,55.52
2023-12-27T04:28:10.025Z,55.79
2023-12-27T04:30:36.578Z,55.66
2023-12-27T04:33:03.512Z,55.96
2023-12-27T04:35:30.164Z,56.13
2023-12-27T04:37:56.945Z,56.46
2023-12-27T04:40:23.927Z,56.26
2023-12-27T04:42:50.430Z,55.95
2023-12-27T04:45:18.172Z,56.54
2023-12-27T04:47:44.846Z,56.73
2023-12-27T04:50:11.688Z,56.72
2023-12-27T04:52:38.235Z,56.86
2023-12-27T04:55:05.388Z,56.78
2023-12-27T04:57:34.205Z,57.25
2023-12-27T05:00:00.863Z,57.50
2023-12-27T05:02:27.505Z,57.70
2023-12-27T05:04:54.004Z,57.98
2023-12-27T05:07:20.512Z,58.45
2023-12-27T05:09:47.053Z,58.85
2023-12-27T05:12:13.607Z,58.75
2023-12-27T05:14:40.114Z,59.14
2023-12-27T05:17:06.674Z,59.50
2023-12-27T05:19:33.749Z,59.64
2023-12-27T05:22:00.337Z,60.14
2023-12-27T05:24:27.096Z,60.40
2023-12-27T05:26:55.712Z,60.56
2023-12-27T05:29:22.408Z,60.48
2023-12-27T05:31:49.024Z,60.91
2023-12-27T05:34:15.597Z,60.51
2023-12-27T05:36:42.176Z,60.65
2023-12-27T05:39:08.692Z,60.91
2023-12-27T05:41:35.235Z,60.85
2023-12-27T05:44:02.620Z,61.17
2023-12-27T05:46:29.595Z,61.41
2023-12-27T05:48:56.140Z,61.33
2023-12-27T05:51:22.733Z,61.64
2023-12-27T05:53:49.244Z,61.55
2023-12-27T05:56:15.776Z,61.52
2023-12-27T05:58:42.282Z,61.42
2023-12-27T06:01:10.467Z,61.25
2023-12-27T06:03:37.547Z,61.01
2023-12-27T06:06:04.365Z,60.63
2023-12-27T06:08:30.973Z,59.80
2023-12-27T06:10:57.446Z,59.14
2023-12-27T06:13:23.937Z,58.67
2023-12-27T06:15:50.444Z,58.84
2023-12-27T06:18:17.347Z,58.92
2023-12-27T06:20:43.973Z,58.63
2023-12-27T06:23:10.504Z,58.33
2023-12-27T06:25:37.061Z,58.63
2023-12-27T06:28:05.320Z,58.60
2023-12-27T06:30:31.980Z,58.84
2023-12-27T06:32:58.770Z,58.67
2023-12-27T06:35:25.353Z,58.76
2023-12-27T06:37:51.807Z,59.05
2023-12-27T06:40:18.294Z,59.05
2023-12-27T06:42:44.855Z,58.94
2023-12-27T06:45:11.916Z,59.31
2023-12-27T06:47:38.448Z,59.39
2023-12-27T06:50:05.605Z,59.55
2023-12-27T06:52:32.176Z,59.80
2023-12-27T06:54:58.748Z,60.00
2023-12-27T06:57:25.279Z,60.20
2023-12-27T06:59:52.086Z,60.18
2023-12-27T07:02:18.641Z,60.22
2023-12-27T07:04:45.680Z,60.65
2023-12-27T07:07:12.339Z,60.33
2023-12-27T07:09:38.994Z,60.28
2023-12-27T07:12:06.165Z,60.64
2023-12-27T07:14:32.772Z,61.00
2023-12-27T07:16:59.341Z,60.81
2023-12-27T07:19:25.844Z,60.94
2023-12-27T07:21:52.419Z,60.54
2023-12-27T07:24:18.993Z,60.73
2023-12-27T07:26:45.632Z,60.86
2023-12-27T07:29:12.302Z,60.95
2023-12-27T07:31:39.005Z,60.84
2023-12-27T07:34:05.693Z,61.22
2023-12-27T07:36:32.373Z,61.06
2023-12-27T07:38:59.027Z,61.04
2023-12-27T07:41:25.578Z,61.09
2023-12-27T07:43:52.062Z,61.04
2023-12-27T07:46:18.560Z,61.60
2023-12-27T07:48:45.364Z,61.60
2023-12-27T07:51:11.970Z,61.51
2023-12-27T07:53:39.238Z,61.14
2023-12-27T07:56:10.582Z,61.37
2023-12-27T07:58:37.089Z,61.05
2023-12-27T08:01:03.774Z,60.85
2023-12-27T08:03:30.682Z,60.88
2023-12-27T08:05:57.264Z,61.04
2023-12-27T08:08:24.087Z,60.80
2023-12-27T08:10:50.612Z,60.21
2023-12-27T08:13:17.138Z,60.50
2023-12-27T08:15:43.739Z,60.63
2023-12-27T08:18:10.375Z,60.46
2023-12-27T08:20:37.570Z,59.82
2023-12-27T08:23:04.325Z,59.54
2023-12-27T08:25:31.027Z,59.59
2023-12-27T08:27:57.738Z,59.11
2023-12-27T08:30:24.604Z,59.15
2023-12-27T08:32:51.252Z,58.73
2023-12-27T08:35:20.018Z,58.89
2023-12-27T08:37:46.931Z,58.82
2023-12-27T08:40:13.655Z,58.71
2023-12-27T08:42:40.235Z,59.00
2023-12-27T08:45:07.295Z,58.96
2023-12-27T08:47:33.896Z,60.30
2023-12-27T08:50:04.709Z,60.24
2023-12-27T08:52:32.630Z,60.45
2023-12-27T08:54:59.514Z,60.56
2023-12-27T08:57:26.345Z,59.96
2023-12-27T08:59:52.858Z,60.54
2023-12-27T09:02:19.405Z,60.56
2023-12-27T09:04:45.998Z,60.16
2023-12-27T09:07:12.655Z,59.72
2023-12-27T09:09:40.624Z,59.68
2023-12-27T09:12:07.375Z,59.39
2023-12-27T09:14:33.998Z,59.67
2023-12-27T09:17:00.599Z,60.00
2023-12-27T09:19:27.233Z,60.06
2023-12-27T09:21:53.785Z,59.49
2023-12-27T09:24:21.192Z,59.24
2023-12-27T09:26:50.914Z,59.66
2023-12-27T09:29:17.525Z,59.55
2023-12-27T09:31:44.906Z,59.75
2023-12-27T09:34:11.891Z,59.39
2023-12-27T09:36:38.751Z,59.15
2023-12-27T09:39:06.127Z,58.91
2023-12-27T09:41:33.150Z,58.10
2023-12-27T09:44:00.818Z,57.49
2023-12-27T09:46:29.394Z,56.06
2023-12-27T09:48:56.573Z,56.16
2023-12-27T09:51:25.269Z,56.67
2023-12-27T09:53:52.699Z,56.29
2023-12-27T09:56:27.034Z,56.39
2023-12-27T09:58:59.057Z,56.39
2023-12-27T10:01:26.386Z,56.13
2023-12-27T10:04:04.617Z,56.17
2023-12-27T10:06:49.186Z,56.12
2023-12-27T10:09:17.798Z,56.16
2023-12-27T10:11:45.714Z,56.26
2023-12-27T10:14:14.538Z,56.81
2023-12-27T10:16:41.021Z,56.64
2023-12-27T10:19:09.186Z,57.02
2023-12-27T10:21:46.217Z,56.83
2023-12-27T10:24:13.170Z,57.04
2023-12-27T10:26:39.821Z,56.89
2023-12-27T10:29:08.721Z,57.31
2023-12-27T10:31:35.748Z,57.42
2023-12-27T10:34:05.009Z,57.23
2023-12-27T10:36:32.223Z,57.43
2023-12-27T10:39:03.782Z,56.48
2023-12-27T10:41:33.568Z,56.22
2023-12-27T10:44:01.702Z,54.79
2023-12-27T10:46:28.234Z,54.89
2023-12-27T10:49:01.345Z,55.24
2023-12-27T10:51:31.105Z,54.69
2023-12-27T10:54:04.516Z,54.46
2023-12-27T10:56:36.967Z,53.70
2023-12-27T10:59:05.940Z,54.15
2023-12-27T11:01:34.847Z,53.05
2023-12-27T11:04:12.547Z,53.07
2023-12-27T11:06:40.836Z,51.29
2023-12-27T11:09:10.307Z,52.90
2023-12-27T11:11:40.460Z,52.22
2023-12-27T11:14:15.029Z,52.07
2023-12-27T11:16:42.181Z,52.50
2023-12-27T11:19:09.812Z,51.96
2023-12-27T11:21:37.647Z,52.48
2023-12-27T11:24:05.415Z,52.08
2023-12-27T11:26:37.640Z,52.79
2023-12-27T11:29:12.036Z,52.22
2023-12-27T11:31:42.964Z,52.01
2023-12-27T11:34:12.540Z,52.25
2023-12-27T11:36:39.638Z,51.64
2023-12-27T11:39:25.300Z,51.75
2023-12-27T11:41:51.862Z,51.13
2023-12-27T11:44:18.511Z,51.27
2023-12-27T11:46:45.427Z,50.67
2023-12-27T11:49:22.516Z,51.17
2023-12-27T11:51:49.328Z,51.13
2023-12-27T11:54:25.346Z,50.05
2023-12-27T11:56:53.530Z,49.78
2023-12-27T11:59:23.065Z,49.66
2023-12-27T12:01:50.780Z,50.78
2023-12-27T12:04:55.818Z,50.34
2023-12-27T12:07:36.842Z,51.33
2023-12-27T12:10:04.302Z,51.87
2023-12-27T12:12:31.762Z,50.43
2023-12-27T12:14:59.623Z,50.21
2023-12-27T12:17:28.376Z,49.77
2023-12-27T12:19:56.619Z,50.23
2023-12-27T12:22:23.327Z,50.09
2023-12-27T12:24:49.915Z,49.86
2023-12-27T12:27:21.936Z,50.13
2023-12-27T12:29:48.451Z,49.67
2023-12-27T12:32:16.569Z,49.49
2023-12-27T12:34:43.939Z,49.54
2023-12-27T12:37:11.220Z,50.13
2023-12-27T12:39:37.967Z,50.20
2023-12-27T12:42:04.726Z,50.33
2023-12-27T12:44:33.156Z,50.32
2023-12-27T12:47:01.073Z,50.53
2023-12-27T12:49:28.981Z,49.94
2023-12-27T12:52:05.458Z,50.23
2023-12-27T12:54:33.534Z,50.07
2023-12-27T12:57:04.145Z,49.71
2023-12-27T12:59:31.292Z,49.12
2023-12-27T13:01:58.026Z,49.71
2023-12-27T13:04:25.410Z,48.85
2023-12-27T13:07:02.622Z,49.06
2023-12-27T13:09:29.374Z,48.80
2023-12-27T13:11:56.058Z,49.10
2023-12-27T13:14:22.691Z,49.16
2023-12-27T13:16:49.725Z,48.95
2023-12-27T13:19:18.420Z,48.78
2023-12-27T13:21:45.284Z,48.89
2023-12-27T13:24:11.928Z,48.78
2023-12-27T13:26:38.848Z,48.86
2023-12-27T13:29:05.420Z,48.81
2023-12-27T13:31:33.415Z,48.43
2023-12-27T13:34:00.411Z,48.48
2023-12-27T13:36:27.628Z,48.54
2023-12-27T13:38:54.133Z,48.15
2023-12-27T13:41:20.651Z,48.04
2023-12-27T13:43:47.154Z,47.89
2023-12-27T13:46:13.984Z,47.93
2023-12-27T13:48:41.214Z,48.18
2023-12-27T13:51:07.914Z,48.28
2023-12-27T13:53:35.534Z,48.30
2023-12-27T13:56:02.762Z,48.23
2023-12-27T13:58:30.237Z,48.29
2023-12-27T14:00:57.290Z,48.05
2023-12-27T14:03:23.963Z,47.78
2023-12-27T14:05:50.615Z,47.34
2023-12-27T14:08:17.126Z,46.83
2023-12-27T14:10:43.664Z,47.14
2023-12-27T14:13:10.553Z,47.20
2023-12-27T14:15:37.341Z,47.25
2023-12-27T14:18:05.826Z,46.74
2023-12-27T14:20:32.858Z,46.97
2023-12-27T14:22:59.397Z,47.09
2023-12-27T14:25:25.906Z,47.34
2023-12-27T14:27:53.720Z,47.64
2023-12-27T14:30:20.356Z,47.45
2023-12-27T14:32:46.915Z,47.11
2023-12-27T14:35:13.485Z,46.60
2023-12-27T14:37:41.544Z,47.13
2023-12-27T14:40:09.399Z,47.20
2023-12-27T14:42:36.191Z,47.41
2023-12-27T14:45:03.817Z,47.87
2023-12-27T14:47:30.830Z,47.88
2023-12-27T14:49:57.370Z,48.02
2023-12-27T14:52:23.884Z,48.64
2023-12-27T14:54:50.412Z,48.15
2023-12-27T14:57:21.583Z,48.44
2023-12-27T14:59:48.116Z,48.49
2023-12-27T15:02:14.711Z,48.58
2023-12-27T15:04:41.420Z,48.91
2023-12-27T15:07:08.011Z,49.29
2023-12-27T15:09:34.789Z,49.25
2023-12-27T15:12:01.357Z,49.69
2023-12-27T15:14:27.971Z,50.17
2023-12-27T15:16:55.480Z,50.27
2023-12-27T15:19:22.068Z,50.61
2023-12-27T15:21:48.719Z,50.82
2023-12-27T15:24:15.440Z,51.17
2023-12-27T15:26:42.131Z,51.16
2023-12-27T15:29:09.051Z,51.61
2023-12-27T15:31:35.899Z,51.31
2023-12-27T15:34:03.382Z,51.74
2023-12-27T15:36:30.515Z,52.02
2023-12-27T15:38:57.390Z,51.81
2023-12-27T15:41:29.669Z,51.34
2023-12-27T15:44:00.778Z,51.72
2023-12-27T15:46:30.683Z,51.32
2023-12-27T15:48:58.540Z,51.70
2023-12-27T15:51:35.749Z,51.89
2023-12-27T15:54:07.928Z,52.46
2023-12-27T15:56:39.280Z,52.64
2023-12-27T15:59:06.463Z,52.84
2023-12-27T16:01:37.127Z,52.85
2023-12-27T16:04:07.754Z,53.50
2023-12-27T16:06:36.899Z,53.71
2023-12-27T16:09:05.568Z,53.99
2023-12-27T16:11:32.409Z,54.71
2023-12-27T16:14:00.052Z,54.55
2023-12-27T16:16:27.100Z,55.17
2023-12-27T16:18:53.964Z,54.91
2023-12-27T16:21:21.343Z,54.09
2023-12-27T16:23:48.187Z,54.37
2023-12-27T16:26:17.098Z,54.42
2023-12-27T16:28:48.250Z,54.34
2023-12-27T16:31:15.187Z,54.54
2023-12-27T16:33:42.090Z,54.60
2023-12-27T16:36:09.117Z,54.76
2023-12-27T16:38:35.705Z,55.28
2023-12-27T16:41:04.529Z,55.61
2023-12-27T16:43:37.913Z,55.67
2023-12-27T16:46:06.886Z,56.02
2023-12-27T16:48:34.238Z,56.31
2023-12-27T16:51:01.741Z,56.63
2023-12-27T16:53:28.449Z,56.70
2023-12-27T16:55:55.056Z,56.23
2023-12-27T16:58:21.770Z,56.44
2023-12-27T17:00:49.524Z,56.86
2023-12-27T17:03:16.809Z,56.63
2023-12-27T17:05:44.076Z,56.78
2023-12-27T17:08:11.226Z,56.44
2023-12-27T17:10:39.575Z,56.58
2023-12-27T17:13:06.199Z,56.48
2023-12-27T17:15:33.293Z,57.08
2023-12-27T17:18:01.278Z,56.71
2023-12-27T17:20:28.440Z,57.00
2023-12-27T17:22:55.104Z,57.09
2023-12-27T17:25:22.488Z,56.81
2023-12-27T17:27:49.098Z,56.95
2023-12-27T17:30:16.063Z,57.15
2023-12-27T17:32:45.198Z,57.04
2023-12-27T17:35:11.965Z,57.65
2023-12-27T17:37:40.089Z,57.71
2023-12-27T17:40:09.358Z,57.72
2023-12-27T17:42:39.344Z,58.04
2023-12-27T17:45:06.705Z,58.40
2023-12-27T17:47:33.765Z,58.36
2023-12-27T17:50:01.790Z,58.86
2023-12-27T17:52:29.889Z,58.78
2023-12-27T17:54:56.987Z,59.00
2023-12-27T17:57:24.053Z,59.43
2023-12-27T17:59:53.718Z,59.53
2023-12-27T18:02:20.365Z,59.19
2023-12-27T18:04:48.736Z,59.42
2023-12-27T18:07:15.966Z,59.35
2023-12-27T18:09:45.600Z,59.20
2023-12-27T18:12:14.798Z,59.19
2023-12-27T18:14:41.572Z,59.54
2023-12-27T18:17:11.782Z,59.78
2023-12-27T18:19:41.235Z,59.77
2023-12-27T18:22:08.441Z,60.21
2023-12-27T18:24:39.033Z,59.83
2023-12-27T18:27:06.334Z,60.05
2023-12-27T18:29:37.475Z,59.84
2023-12-27T18:32:05.779Z,60.04
2023-12-27T18:34:36.626Z,59.67
2023-12-27T18:37:03.287Z,59.86
2023-12-27T18:39:29.930Z,59.54
2023-12-27T18:41:56.542Z,59.32
2023-12-27T18:44:24.113Z,59.25
2023-12-27T18:46:50.649Z,59.12
2023-12-27T18:49:17.448Z,58.97
2023-12-27T18:51:44.159Z,58.88
2023-12-27T18:54:10.829Z,59.32
2023-12-27T18:56:37.363Z,58.72
2023-12-27T18:59:05.180Z,58.46
2023-12-27T19:01:32.309Z,58.84
2023-12-27T19:03:59.230Z,58.85
2023-12-27T19:06:27.583Z,58.52
2023-12-27T19:09:00.822Z,58.42
2023-12-27T19:11:29.425Z,58.91
2023-12-27T19:13:58.311Z,58.71
2023-12-27T19:16:27.928Z,58.53
2023-12-27T19:18:55.535Z,58.57
2023-12-27T19:21:23.125Z,58.80
2023-12-27T19:23:49.894Z,59.37
2023-12-27T19:26:18.550Z,59.84
2023-12-27T19:28:47.640Z,59.81
2023-12-27T19:31:14.995Z,59.99
2023-12-27T19:33:41.894Z,59.81
2023-12-27T19:36:09.361Z,59.82
2023-12-27T19:38:36.463Z,60.80
2023-12-27T19:41:05.944Z,60.64
2023-12-27T19:43:33.249Z,60.92
2023-12-27T19:45:59.911Z,61.01
2023-12-27T19:48:27.048Z,61.06
2023-12-27T19:50:53.841Z,61.37
2023-12-27T19:53:20.322Z,61.57
2023-12-27T19:55:48.374Z,61.43
2023-12-27T19:58:15.924Z,61.61
2023-12-27T20:00:42.569Z,61.39
2023-12-27T20:03:09.340Z,61.82
2023-12-27T20:05:36.017Z,61.79
2023-12-27T20:08:03.129Z,61.79
2023-12-27T20:10:31.663Z,62.36
2023-12-27T20:13:02.302Z,62.46
2023-12-27T20:15:29.708Z,62.10
2023-12-27T20:17:56.773Z,61.67
2023-12-27T20:20:23.691Z,61.30
2023-12-27T20:22:51.463Z,61.16
2023-12-27T20:25:18.039Z,61.19
2023-12-27T20:27:45.032Z,61.27
2023-12-27T20:30:12.300Z,61.82
2023-12-27T20:32:38.874Z,61.76
2023-12-27T20:35:06.052Z,61.12
2023-12-27T20:37:32.952Z,61.45
2023-12-27T20:40:02.392Z,62.06
2023-12-27T20:42:31.309Z,61.86
2023-12-27T20:44:58.053Z,61.75
2023-12-27T20:47:24.678Z,61.77
2023-12-27T20:49:51.348Z,62.12
2023-12-27T20:52:17.978Z,62.28
2023-12-27T20:54:44.468Z,62.15
2023-12-27T20:57:11.221Z,62.11
2023-12-27T20:59:39.102Z,61.98
2023-12-27T21:02:05.623Z,62.30
2023-12-27T21:04:32.532Z,61.70
2023-12-27T21:07:02.535Z,62.30
2023-12-27T21:09:29.092Z,62.09
2023-12-27T21:11:56.271Z,62.08
2023-12-27T21:14:22.864Z,61.78
2023-12-27T21:16:49.458Z,62.40
2023-12-27T21:19:16.189Z,61.97
2023-12-27T21:21:44.142Z,61.61
2023-12-27T21:24:11.762Z,61.48
2023-12-27T21:26:38.374Z,61.42
2023-12-27T21:29:05.139Z,61.59
2023-12-27T21:31:33.819Z,61.86
2023-12-27T21:34:00.721Z,61.98
2023-12-27T21:36:30.035Z,61.71
2023-12-27T21:38:57.874Z,61.56
2023-12-27T21:41:28.505Z,61.33
2023-12-27T21:43:57.568Z,61.09
2023-12-27T21:46:30.257Z,61.24
2023-12-27T21:48:57.462Z,61.14
2023-12-27T21:51:28.496Z,61.37
2023-12-27T21:53:56.111Z,61.36
2023-12-27T21:56:23.820Z,61.77
2023-12-27T21:58:53.862Z,62.02
2023-12-27T22:01:21.926Z,62.08
2023-12-27T22:03:50.123Z,61.79
2023-12-27T22:06:17.230Z,61.56
2023-12-27T22:08:44.404Z,62.11
2023-12-27T22:11:12.723Z,61.99
2023-12-27T22:13:42.726Z,61.35
2023-12-27T22:16:16.859Z,61.25
2023-12-27T22:18:46.012Z,61.36
2023-12-27T22:21:18.030Z,61.24
2023-12-27T22:23:45.667Z,60.96
2023-12-27T22:26:14.078Z,60.78
2023-12-27T22:28:40.735Z,60.80
2023-12-27T22:31:07.729Z,60.85
2023-12-27T22:33:34.634Z,61.23
2023-12-27T22:36:01.330Z,61.73
2023-12-27T22:38:28.111Z,62.25
2023-12-27T22:40:54.879Z,62.56
2023-12-27T22:43:21.419Z,62.62
2023-12-27T22:45:48.066Z,62.51
2023-12-27T22:48:14.794Z,62.89
2023-12-27T22:50:41.332Z,62.87
2023-12-27T22:53:08.024Z,62.46
2023-12-27T22:55:34.611Z,62.66
2023-12-27T22:58:01.745Z,62.69
2023-12-27T23:00:28.485Z,62.31
2023-12-27T23:02:55.077Z,62.27
2023-12-27T23:05:23.483Z,61.75
2023-12-27T23:07:50.435Z,61.82
2023-12-27T23:10:16.929Z,62.00
2023-12-27T23:12:44.057Z,62.44
2023-12-27T23:15:11.317Z,62.33
2023-12-27T23:17:39.606Z,61.97
2023-12-27T23:20:07.086Z,61.70
2023-12-27T23:22:33.928Z,61.98
2023-12-27T23:25:00.817Z,61.89
2023-12-27T23:27:28.124Z,61.80
2023-12-27T23:29:54.832Z,61.82
2023-12-27T23:32:21.594Z,61.33
2023-12-27T23:34:48.406Z,61.60
2023-12-27T23:37:15.014Z,61.58
2023-12-27T23:39:43.053Z,61.93
2023-12-27T23:42:10.573Z,62.17
2023-12-27T23:44:37.215Z,62.44
2023-12-27T23:47:03.810Z,62.20
2023-12-27T23:49:30.883Z,62.51
2023-12-27T23:51:59.056Z,62.51
2023-12-27T23:54:25.857Z,62.78
2023-12-27T23:56:54.188Z,63.01
2023-12-27T23:59:20.750Z,63.39
